Time;durP1;ratioP1;P1;durP2;ratioP2;P2;SDS_P1;SDS_P2;PMS_P1;PMS_P2;Temp;Humidity;BMP_temperature;BMP_pressure;BME280_temperature;BME280_humidity;BME280_pressure;Samples;Min_cycle;Max_cycle;Signal;HPM_P1;HPM_P2
2023/05/01 00:01:32;;;;;;;70.80;8.73;;;12.30;99.90;;;;;;5039218;28;20168;-83
2023/05/01 00:03:58;;;;;;;69.63;8.60;;;12.30;99.90;;;;;;5040515;28;20177;-83
2023/05/01 00:06:24;;;;;;;68.30;8.83;;;12.30;99.90;;;;;;5039871;28;20196;-83
2023/05/01 00:08:49;;;;;;;68.77;8.83;;;12.30;99.90;;;;;;5038050;28;20165;-83
2023/05/01 00:11:15;;;;;;;67.80;7.90;;;12.40;99.90;;;;;;5037139;28;20177;-83
2023/05/01 00:13:41;;;;;;;70.07;8.80;;;12.40;99.90;;;;;;5035886;28;20189;-83
2023/05/01 00:16:08;;;;;;;70.30;9.60;;;12.50;99.90;;;;;;5037298;28;20283;-83
2023/05/01 00:18:33;;;;;;;68.23;9.33;;;12.50;99.90;;;;;;5035874;28;20211;-83
2023/05/01 00:20:59;;;;;;;66.67;7.77;;;12.50;99.90;;;;;;5037615;28;20408;-83
2023/05/01 00:23:25;;;;;;;68.20;8.63;;;12.60;99.90;;;;;;5037099;28;20169;-83
2023/05/01 00:25:50;;;;;;;73.73;9.90;;;12.60;99.90;;;;;;5035923;28;20169;-83
2023/05/01 00:28:17;;;;;;;66.80;8.17;;;12.50;99.90;;;;;;5037331;28;20204;-83
2023/05/01 00:30:44;;;;;;;68.23;7.37;;;12.50;99.90;;;;;;5036345;28;20211;-83
2023/05/01 00:33:10;;;;;;;73.73;6.30;;;12.60;96.30;;;;;;5036786;28;20422;-83
2023/05/01 00:35:36;;;;;;;69.50;7.47;;;12.60;91.50;;;;;;5035613;28;20424;-83
2023/05/01 00:38:01;;;;;;;66.07;6.10;;;12.60;89.80;;;;;;5035725;28;20188;-83
2023/05/01 00:40:27;;;;;;;69.47;6.53;;;12.70;90.10;;;;;;5036367;28;20617;-83
2023/05/01 00:42:53;;;;;;;68.53;6.40;;;12.70;90.80;;;;;;5036816;28;20161;-83
2023/05/01 00:45:19;;;;;;;68.10;6.30;;;12.80;90.90;;;;;;5036523;28;20185;-83
2023/05/01 00:47:45;;;;;;;68.20;6.63;;;12.70;91.30;;;;;;5037226;28;20486;-83
2023/05/01 00:50:12;;;;;;;68.23;7.00;;;12.70;91.70;;;;;;5037209;28;20196;-83
2023/05/01 00:52:38;;;;;;;69.43;6.00;;;12.70;92.50;;;;;;5036891;28;20422;-83
2023/05/01 00:55:04;;;;;;;69.10;6.00;;;12.70;85.40;;;;;;5036533;28;20511;-83
2023/05/01 00:57:31;;;;;;;67.37;6.37;;;12.70;93.00;;;;;;5035846;28;20176;-83
2023/05/01 00:59:57;;;;;;;68.37;6.10;;;12.70;92.90;;;;;;5036436;28;20483;-83
2023/05/01 01:02:23;;;;;;;66.57;6.23;;;12.80;93.10;;;;;;5036885;28;20432;-83
2023/05/01 01:04:49;;;;;;;66.60;6.07;;;12.90;93.10;;;;;;5035867;28;20673;-83
2023/05/01 01:07:20;;;;;;;70.15;6.97;;;12.90;93.20;;;;;;5036756;28;20418;-83
2023/05/01 01:10:17;;;;;;;67.72;6.80;;;13.00;91.10;;;;;;5036183;28;20575;-83
2023/05/01 01:13:03;;;;;;;75.60;7.20;;;13.00;91.80;;;;;;5036943;28;20145;-83
2023/05/01 01:15:34;;;;;;;69.13;6.77;;;13.00;90.60;;;;;;5036862;28;20420;-83
2023/05/01 01:18:22;;;;;;;70.03;7.07;;;13.00;91.10;;;;;;5036709;28;20419;-83
2023/05/01 01:21:10;;;;;;;66.83;7.73;;;12.90;94.00;;;;;;5036578;28;20388;-83
2023/05/01 01:24:05;;;;;;;67.85;7.55;;;12.70;99.90;;;;;;5029972;28;20424;-83
2023/05/01 01:27:07;;;;;;;67.70;7.50;;;12.80;99.80;;;;;;5036473;28;20150;-83
2023/05/01 01:30:16;;;;;;;69.50;10.00;;;12.80;99.90;;;;;;5036776;28;20427;-83
2023/05/01 01:33:21;;;;;;;70.70;10.63;;;12.70;99.90;;;;;;5035024;28;20400;-83
2023/05/01 01:35:55;;;;;;;71.30;12.33;;;12.60;99.90;;;;;;5034786;28;20399;-83
2023/05/01 01:38:28;;;;;;;68.30;10.10;;;12.50;99.90;;;;;;5035158;28;20442;-83
2023/05/01 01:41:05;;;;;;;67.80;10.40;;;12.60;99.90;;;;;;5035564;28;20743;-83
2023/05/01 01:43:37;;;;;;;68.77;11.10;;;12.60;99.90;;;;;;5040062;28;20384;-83
2023/05/01 01:46:07;;;;;;;68.37;10.20;;;12.60;99.90;;;;;;5038355;28;20779;-83
2023/05/01 01:48:37;;;;;;;69.17;10.10;;;12.60;99.90;;;;;;5039820;28;20415;-83
2023/05/01 01:51:11;;;;;;;68.40;9.13;;;12.60;99.90;;;;;;5039568;28;20807;-83
2023/05/01 01:53:38;;;;;;;68.53;8.80;;;12.50;99.90;;;;;;5038385;28;20511;-83
2023/05/01 01:56:05;;;;;;;69.75;8.85;;;12.50;99.90;;;;;;5038461;28;20193;-83
2023/05/01 01:58:33;;;;;;;67.57;9.70;;;12.60;99.90;;;;;;5039425;28;20157;-83
2023/05/01 02:01:00;;;;;;;68.63;10.13;;;12.60;99.90;;;;;;5037939;28;20415;-83
2023/05/01 02:03:26;;;;;;;68.10;10.57;;;12.60;99.90;;;;;;5039097;28;20419;-83
2023/05/01 02:05:55;;;;;;;68.80;8.97;;;12.50;99.90;;;;;;5039031;28;20404;-83
2023/05/01 02:08:22;;;;;;;67.97;9.50;;;12.50;99.90;;;;;;5039194;28;20564;-83
2023/05/01 02:10:49;;;;;;;72.50;9.57;;;12.50;99.90;;;;;;5038520;28;20262;-83
2023/05/01 02:13:16;;;;;;;67.33;8.17;;;12.50;99.90;;;;;;5038560;28;20491;-83
2023/05/01 02:15:43;;;;;;;69.03;9.43;;;12.50;99.90;;;;;;5038899;28;20896;-83
2023/05/01 02:18:11;;;;;;;67.57;8.82;;;12.60;99.90;;;;;;5092820;22;20491;-87
2023/05/01 02:20:38;;;;;;;69.30;8.40;;;12.60;99.90;;;;;;5017393;28;20176;-87
2023/05/01 02:23:06;;;;;;;72.37;9.40;;;12.50;99.90;;;;;;5016992;28;20484;-87
2023/05/01 02:25:35;;;;;;;69.00;8.93;;;12.50;99.90;;;;;;5016286;28;20432;-86
2023/05/01 02:28:07;;;;;;;68.57;9.70;;;12.40;99.90;;;;;;5017188;28;20162;-87
2023/05/01 02:30:35;;;;;;;68.82;8.90;;;12.40;99.90;;;;;;5016151;28;20814;-87
2023/05/01 02:33:01;;;;;;;68.37;10.00;;;12.40;99.90;;;;;;5015645;28;20190;-86
2023/05/01 02:35:26;;;;;;;67.47;8.37;;;12.30;99.90;;;;;;5017467;28;20426;-87
2023/05/01 02:37:52;;;;;;;67.87;9.23;;;12.30;99.90;;;;;;5016060;28;20292;-85
2023/05/01 02:40:18;;;;;;;68.60;10.27;;;12.30;99.90;;;;;;5016883;28;20173;-86
2023/05/01 02:42:44;;;;;;;68.93;9.10;;;12.30;99.90;;;;;;5015661;28;20170;-87
2023/05/01 02:45:18;;;;;;;70.70;10.60;;;12.30;99.90;;;;;;5015743;28;20268;-86
2023/05/01 02:47:47;;;;;;;72.70;9.88;;;12.30;99.90;;;;;;5016983;28;20389;-86
2023/05/01 02:50:14;;;;;;;68.97;9.02;;;12.30;99.90;;;;;;5016445;28;20561;-85
2023/05/01 02:52:40;;;;;;;71.50;10.63;;;12.30;99.90;;;;;;5016463;28;20157;-86
2023/05/01 02:55:07;;;;;;;69.07;11.53;;;12.30;99.90;;;;;;5014610;28;20692;-86
2023/05/01 02:57:33;;;;;;;70.43;11.83;;;12.10;99.90;;;;;;5015105;28;20412;-85
2023/05/01 02:59:59;;;;;;;72.40;11.70;;;12.10;99.90;;;;;;5016516;28;20408;-86
2023/05/01 03:02:24;;;;;;;70.17;11.47;;;12.10;99.90;;;;;;5015281;28;20435;-86
2023/05/01 03:04:50;;;;;;;67.47;10.10;;;12.10;99.90;;;;;;5015618;28;20192;-86
2023/05/01 03:07:16;;;;;;;68.77;12.97;;;12.10;99.90;;;;;;5017096;28;20261;-86
2023/05/01 03:09:42;;;;;;;69.35;10.60;;;12.10;99.90;;;;;;5016280;28;20217;-86
2023/05/01 03:12:07;;;;;;;68.77;10.03;;;12.10;99.90;;;;;;5015184;28;20204;-86
2023/05/01 03:14:33;;;;;;;68.80;8.80;;;12.10;99.90;;;;;;5016419;28;20182;-87
2023/05/01 03:16:59;;;;;;;68.20;10.38;;;12.00;99.90;;;;;;5015643;28;20170;-85
2023/05/01 03:19:25;;;;;;;69.40;11.60;;;12.00;99.90;;;;;;5016706;28;20185;-86
2023/05/01 03:21:50;;;;;;;69.80;11.30;;;12.00;99.90;;;;;;5016358;28;20628;-86
2023/05/01 03:24:16;;;;;;;68.50;11.20;;;11.90;99.90;;;;;;5016138;28;20268;-86
2023/05/01 03:26:42;;;;;;;68.37;9.80;;;11.80;99.90;;;;;;5015888;28;20170;-86
2023/05/01 03:29:08;;;;;;;68.17;8.10;;;11.80;99.90;;;;;;5014788;28;20174;-86
2023/05/01 03:31:34;;;;;;;68.47;8.10;;;11.80;99.90;;;;;;5015910;28;20165;-87
2023/05/01 03:34:00;;;;;;;70.22;7.88;;;11.80;99.90;;;;;;5015988;28;20432;-86
2023/05/01 03:36:27;;;;;;;70.47;9.80;;;11.80;99.90;;;;;;5014837;28;20174;-86
2023/05/01 03:38:53;;;;;;;69.53;9.35;;;11.80;99.90;;;;;;5014738;28;20193;-86
2023/05/01 03:41:18;;;;;;;67.30;8.00;;;11.80;99.90;;;;;;5016073;28;20174;-86
2023/05/01 03:43:44;;;;;;;68.67;8.67;;;11.70;99.90;;;;;;5014712;28;20190;-86
2023/05/01 03:46:10;;;;;;;70.00;7.77;;;11.60;99.90;;;;;;5016290;28;20193;-86
2023/05/01 03:48:35;;;;;;;72.17;7.93;;;11.60;99.90;;;;;;5014980;28;20181;-86
2023/05/01 03:51:01;;;;;;;66.37;7.60;;;11.60;99.90;;;;;;5015725;28;21059;-86
2023/05/01 03:53:27;;;;;;;69.17;9.17;;;11.60;99.90;;;;;;5015917;28;20173;-85
2023/05/01 03:55:53;;;;;;;67.07;7.80;;;11.50;99.90;;;;;;5014343;28;20173;-87
2023/05/01 03:58:20;;;;;;;67.80;8.80;;;11.40;99.90;;;;;;5015709;28;20154;-86
2023/05/01 04:00:46;;;;;;;68.57;8.27;;;11.50;99.90;;;;;;5015514;28;20197;-86
2023/05/01 04:03:12;;;;;;;67.50;8.27;;;11.40;99.90;;;;;;5014206;28;20230;-86
2023/05/01 04:05:37;;;;;;;70.33;8.93;;;11.50;99.90;;;;;;5015183;28;20209;-86
2023/05/01 04:08:03;;;;;;;67.30;8.50;;;11.50;99.90;;;;;;5015836;28;20530;-85
2023/05/01 04:10:29;;;;;;;68.07;9.50;;;11.50;99.90;;;;;;5014086;28;20285;-87
2023/05/01 04:12:55;;;;;;;69.37;9.70;;;11.50;99.90;;;;;;5015313;28;20404;-86
2023/05/01 04:15:21;;;;;;;67.53;8.53;;;11.50;99.90;;;;;;5014162;28;20507;-87
2023/05/01 04:17:47;;;;;;;71.90;9.80;;;11.40;99.90;;;;;;5013727;28;20665;-86
2023/05/01 04:20:13;;;;;;;69.37;9.90;;;11.50;99.90;;;;;;5015506;28;20416;-86
2023/05/01 04:22:39;;;;;;;71.47;8.82;;;11.50;99.90;;;;;;5015506;28;20400;-86
2023/05/01 04:25:05;;;;;;;71.10;9.63;;;11.40;99.90;;;;;;5015547;28;20701;-86
2023/05/01 04:27:30;;;;;;;69.05;9.32;;;11.40;99.90;;;;;;5015132;28;20211;-86
2023/05/01 04:29:56;;;;;;;69.87;9.37;;;11.40;99.90;;;;;;5015437;28;20553;-86
2023/05/01 04:32:22;;;;;;;68.73;9.03;;;11.40;99.90;;;;;;5014091;28;20169;-87
2023/05/01 04:34:48;;;;;;;67.80;9.63;;;11.50;99.90;;;;;;5013530;28;20432;-86
2023/05/01 04:37:16;;;;;;;70.90;10.57;;;11.50;99.90;;;;;;5013910;28;20216;-86
2023/05/01 04:39:42;;;;;;;68.82;10.98;;;11.40;99.90;;;;;;5014215;28;20166;-85
2023/05/01 04:42:08;;;;;;;69.30;9.33;;;11.40;99.90;;;;;;5015089;28;20173;-85
2023/05/01 04:44:35;;;;;;;66.77;7.57;;;11.50;99.90;;;;;;5013934;28;20565;-85
2023/05/01 04:47:05;;;;;;;68.22;9.45;;;11.60;99.90;;;;;;5014518;28;20201;-85
2023/05/01 04:49:31;;;;;;;68.15;9.88;;;11.50;99.90;;;;;;5013617;28;20285;-86
2023/05/01 04:51:56;;;;;;;70.47;10.40;;;11.50;99.90;;;;;;5013628;28;20220;-85
2023/05/01 04:54:23;;;;;;;67.80;8.90;;;11.50;99.90;;;;;;5013798;28;20968;-86
2023/05/01 04:56:48;;;;;;;69.63;8.90;;;11.50;99.90;;;;;;5015356;28;20158;-86
2023/05/01 04:59:14;;;;;;;70.20;10.03;;;11.50;99.90;;;;;;5013820;28;20176;-85
2023/05/01 05:01:40;;;;;;;69.20;10.17;;;11.60;99.90;;;;;;5015537;28;20197;-85
2023/05/01 05:04:06;;;;;;;68.80;8.90;;;11.60;99.90;;;;;;5015265;28;20208;-86
2023/05/01 05:06:32;;;;;;;67.63;9.18;;;11.70;99.90;;;;;;5013254;28;20166;-86
2023/05/01 05:08:58;;;;;;;69.47;10.40;;;11.70;99.90;;;;;;5015339;28;20180;-85
2023/05/01 05:11:23;;;;;;;69.30;8.20;;;11.80;99.90;;;;;;5014897;28;20495;-86
2023/05/01 05:13:49;;;;;;;68.10;9.03;;;11.70;99.90;;;;;;5014712;28;20210;-86
2023/05/01 05:16:16;;;;;;;68.37;9.77;;;11.70;99.90;;;;;;5015321;28;20170;-86
2023/05/01 05:18:42;;;;;;;70.95;9.32;;;11.70;99.90;;;;;;5017424;28;20200;-86
2023/05/01 05:21:09;;;;;;;69.17;8.43;;;11.80;99.90;;;;;;5017562;28;20655;-86
2023/05/01 05:23:35;;;;;;;69.90;9.00;;;11.80;99.90;;;;;;5019037;28;20464;-86
2023/05/01 05:26:01;;;;;;;69.65;9.40;;;11.90;99.90;;;;;;5018725;28;20408;-86
2023/05/01 05:28:28;;;;;;;70.85;10.45;;;12.00;99.90;;;;;;5018286;28;20174;-86
2023/05/01 05:30:57;;;;;;;70.40;8.52;;;12.00;99.90;;;;;;5018360;28;20556;-86
2023/05/01 05:33:23;;;;;;;70.50;8.65;;;12.00;99.90;;;;;;5017250;28;20578;-86
2023/05/01 05:35:51;;;;;;;69.97;9.27;;;12.10;99.90;;;;;;5019187;28;20190;-86
2023/05/01 05:38:16;;;;;;;67.40;8.63;;;12.20;99.90;;;;;;5018606;28;20222;-86
2023/05/01 05:40:42;;;;;;;68.90;9.80;;;12.20;99.90;;;;;;5016863;28;20173;-86
2023/05/01 05:43:09;;;;;;;69.20;9.80;;;12.30;99.90;;;;;;5016613;28;20166;-86
2023/05/01 05:45:35;;;;;;;70.82;10.60;;;12.30;99.90;;;;;;5016597;28;20189;-86
2023/05/01 05:48:01;;;;;;;69.00;10.75;;;12.40;99.90;;;;;;5017041;28;20174;-86
2023/05/01 05:50:28;;;;;;;67.10;7.20;;;12.40;93.40;;;;;;5018124;28;20186;-86
2023/05/01 05:52:53;;;;;;;68.47;7.47;;;12.40;87.40;;;;;;5018079;28;20838;-86
2023/05/01 05:55:19;;;;;;;67.50;8.10;;;12.50;81.50;;;;;;5017838;28;20182;-85
2023/05/01 05:57:45;;;;;;;72.80;8.43;;;12.50;74.50;;;;;;5018450;28;20163;-86
2023/05/01 06:00:11;;;;;;;73.70;8.50;;;12.50;62.50;;;;;;5016632;28;20781;-86
2023/05/01 06:02:43;;;;;;;67.75;8.32;;;12.50;60.50;;;;;;5016565;28;20178;-86
2023/05/01 06:05:09;;;;;;;67.63;8.25;;;12.60;65.00;;;;;;5016723;28;20194;-85
2023/05/01 06:07:36;;;;;;;67.10;7.70;;;12.70;58.70;;;;;;5018499;28;20186;-86
2023/05/01 06:10:05;;;;;;;70.05;8.75;;;12.80;58.80;;;;;;5017422;28;20197;-86
2023/05/01 06:12:31;;;;;;;68.55;8.38;;;12.90;61.70;;;;;;5018951;28;20222;-85
2023/05/01 06:15:00;;;;;;;69.43;8.77;;;12.90;53.00;;;;;;5018523;28;20189;-86
2023/05/01 06:17:25;;;;;;;69.97;8.20;;;12.90;55.60;;;;;;5017508;28;20602;-85
2023/05/01 06:19:52;;;;;;;66.70;8.60;;;12.90;51.10;;;;;;5017897;28;20185;-85
2023/05/01 06:22:18;;;;;;;67.00;7.57;;;13.00;53.30;;;;;;5018489;28;20217;-85
2023/05/01 06:24:44;;;;;;;66.68;7.28;;;13.00;44.50;;;;;;5018098;28;20420;-85
2023/05/01 06:27:10;;;;;;;67.20;7.13;;;13.10;54.50;;;;;;5016821;28;20592;-85
2023/05/01 06:29:36;;;;;;;67.70;8.53;;;13.10;51.80;;;;;;5016768;28;20209;-85
2023/05/01 06:32:02;;;;;;;66.97;7.63;;;13.20;53.70;;;;;;5018506;28;20916;-85
2023/05/01 06:34:28;;;;;;;67.80;7.30;;;13.20;45.90;;;;;;5018173;28;20553;-86
2023/05/01 06:36:54;;;;;;;67.63;7.33;;;13.20;46.00;;;;;;5017081;28;20401;-84
2023/05/01 06:39:20;;;;;;;67.00;6.90;;;13.20;40.60;;;;;;5018273;28;20455;-85
2023/05/01 06:41:46;;;;;;;66.77;7.27;;;13.30;41.50;;;;;;5018404;28;20424;-85
2023/05/01 06:44:12;;;;;;;68.60;6.90;;;13.30;39.60;;;;;;5016429;28;20200;-85
2023/05/01 06:46:38;;;;;;;69.67;7.27;;;13.40;36.80;;;;;;5017610;28;20400;-85
2023/05/01 06:49:04;;;;;;;67.27;6.53;;;13.40;44.80;;;;;;5017914;28;20574;-84
2023/05/01 06:51:30;;;;;;;69.40;7.13;;;13.40;32.30;;;;;;5016258;28;20454;-84
2023/05/01 06:53:56;;;;;;;68.50;7.50;;;13.40;35.10;;;;;;5018045;28;20495;-85
2023/05/01 06:56:22;;;;;;;67.27;6.40;;;13.50;40.50;;;;;;5016441;28;20488;-86
2023/05/01 06:58:50;;;;;;;66.60;6.03;;;13.50;35.90;;;;;;5016154;28;20494;-86
2023/05/01 07:01:19;;;;;;;66.20;5.57;;;13.50;29.10;;;;;;5016228;28;20535;-86
2023/05/01 07:03:45;;;;;;;72.07;6.90;;;13.50;35.60;;;;;;5017046;28;20424;-85
2023/05/01 07:06:10;;;;;;;68.57;7.87;;;13.60;28.10;;;;;;5017159;28;20428;-86
2023/05/01 07:08:36;;;;;;;74.00;7.03;;;13.60;35.80;;;;;;5017302;28;20634;-86
2023/05/01 07:11:02;;;;;;;66.90;5.90;;;13.70;31.80;;;;;;5017066;28;20196;-85
2023/05/01 07:13:27;;;;;;;68.10;6.00;;;13.70;32.10;;;;;;5017390;28;20178;-86
2023/05/01 07:15:53;;;;;;;66.10;5.97;;;13.80;31.10;;;;;;5016888;28;20189;-85
2023/05/01 07:18:19;;;;;;;67.80;5.07;;;13.90;28.50;;;;;;5017609;28;20243;-86
2023/05/01 07:20:45;;;;;;;66.37;5.77;;;14.00;29.40;;;;;;5015480;28;20832;-85
2023/05/01 07:23:11;;;;;;;66.90;5.67;;;14.00;27.20;;;;;;5016041;28;20849;-85
2023/05/01 07:25:37;;;;;;;67.07;5.70;;;14.20;29.00;;;;;;5017311;28;20425;-85
2023/05/01 07:28:07;;;;;;;65.97;5.73;;;14.30;18.60;;;;;;5016663;28;20166;-85
2023/05/01 07:30:34;;;;;;;68.67;6.00;;;14.20;19.90;;;;;;5016380;28;20592;-86
2023/05/01 07:33:00;;;;;;;65.50;5.30;;;14.30;25.00;;;;;;5016738;28;20421;-85
2023/05/01 07:35:26;;;;;;;70.10;6.23;;;14.50;21.30;;;;;;5016513;28;20437;-85
2023/05/01 07:37:52;;;;;;;66.60;5.43;;;14.50;16.60;;;;;;5017429;28;20413;-85
2023/05/01 07:40:18;;;;;;;68.47;6.77;;;14.60;15.20;;;;;;5015247;28;20162;-86
2023/05/01 07:42:43;;;;;;;69.50;5.73;;;14.60;11.40;;;;;;5017240;28;20240;-85
2023/05/01 07:45:10;;;;;;;69.40;5.93;;;14.60;8.50;;;;;;5016539;28;20443;-85
2023/05/01 07:47:36;;;;;;;66.40;5.60;;;14.60;9.50;;;;;;5015203;28;20190;-86
2023/05/01 07:50:02;;;;;;;68.63;5.60;;;14.70;9.50;;;;;;5016581;28;20797;-86
2023/05/01 07:52:28;;;;;;;66.97;5.57;;;14.90;11.20;;;;;;5017073;28;20415;-86
2023/05/01 07:55:01;;;;;;;70.53;6.00;;;15.00;5.40;;;;;;5016561;28;20421;-86
2023/05/01 07:57:27;;;;;;;66.57;6.53;;;15.00;2.60;;;;;;5015302;28;20477;-85
2023/05/01 07:59:56;;;;;;;66.70;6.17;;;15.10;1.00;;;;;;5016705;28;20440;-86
2023/05/01 08:02:22;;;;;;;66.37;6.50;;;15.30;1.00;;;;;;5016742;28;20538;-85
2023/05/01 08:04:47;;;;;;;66.10;5.50;;;15.30;1.00;;;;;;5016585;28;20425;-86
2023/05/01 08:07:14;;;;;;;67.13;5.63;;;15.40;1.00;;;;;;5016823;28;20409;-86
2023/05/01 08:09:39;;;;;;;67.60;6.03;;;15.50;1.00;;;;;;5014651;28;20202;-85
2023/05/01 08:12:05;;;;;;;67.67;6.13;;;15.50;1.00;;;;;;5015212;28;20405;-86
2023/05/01 08:14:31;;;;;;;65.73;5.73;;;15.60;1.00;;;;;;5016389;28;20187;-85
2023/05/01 08:16:57;;;;;;;65.50;5.27;;;15.60;1.00;;;;;;5016764;28;20163;-86
2023/05/01 08:19:23;;;;;;;66.53;6.03;;;15.60;1.00;;;;;;5101614;23;20233;-81
2023/05/01 08:21:49;;;;;;;65.40;5.90;;;15.50;1.00;;;;;;5032799;28;20169;-81
2023/05/01 08:24:15;;;;;;;69.10;6.50;;;15.50;1.00;;;;;;5034132;28;20426;-81
2023/05/01 08:26:40;;;;;;;66.60;5.50;;;15.60;1.00;;;;;;5038422;28;20167;-81
2023/05/01 08:29:12;;;;;;;67.70;6.43;;;15.60;1.00;;;;;;5037807;28;20389;-81
2023/05/01 08:31:38;;;;;;;66.60;6.00;;;15.70;1.00;;;;;;5038531;28;20628;-82
2023/05/01 08:34:05;;;;;;;65.27;5.27;;;15.70;1.00;;;;;;5037682;28;20503;-82
2023/05/01 08:36:31;;;;;;;68.83;6.30;;;15.90;1.00;;;;;;5038684;28;20245;-81
2023/05/01 08:38:57;;;;;;;68.40;6.20;;;15.80;1.00;;;;;;5037694;28;20408;-81
2023/05/01 08:41:23;;;;;;;68.97;6.50;;;16.10;1.00;;;;;;5038370;28;20761;-81
2023/05/01 08:43:49;;;;;;;69.30;5.90;;;16.20;1.00;;;;;;5038668;28;20269;-81
2023/05/01 08:46:37;;;;;;;69.33;7.30;;;16.20;1.00;;;;;;5037884;28;20434;-81
2023/05/01 08:49:05;;;;;;;68.00;5.60;;;16.20;1.00;;;;;;5037475;28;20630;-81
2023/05/01 08:51:33;;;;;;;67.80;6.60;;;16.30;1.00;;;;;;5038428;28;20849;-81
2023/05/01 08:54:00;;;;;;;68.57;5.93;;;16.50;1.00;;;;;;5042227;28;20453;-81
2023/05/01 08:56:28;;;;;;;68.60;6.47;;;16.50;1.00;;;;;;5040875;28;20422;-81
2023/05/01 08:58:55;;;;;;;71.57;5.87;;;16.60;1.00;;;;;;5043493;28;20531;-81
2023/05/01 09:01:22;;;;;;;67.33;5.87;;;16.50;1.00;;;;;;5042537;28;20405;-81
2023/05/01 09:03:49;;;;;;;67.37;6.10;;;16.60;1.00;;;;;;5040147;28;20481;-81
2023/05/01 09:06:15;;;;;;;66.77;6.20;;;16.80;1.00;;;;;;5041737;28;20412;-81
2023/05/01 09:08:41;;;;;;;67.27;5.17;;;17.00;1.00;;;;;;5042215;28;20442;-81
2023/05/01 09:11:07;;;;;;;67.07;5.77;;;17.10;1.00;;;;;;5042408;28;20444;-81
2023/05/01 09:13:32;;;;;;;67.50;5.13;;;17.10;1.00;;;;;;5042693;28;20162;-81
2023/05/01 09:15:59;;;;;;;66.97;5.17;;;17.00;1.00;;;;;;5042107;28;20164;-81
2023/05/01 09:18:25;;;;;;;66.13;5.03;;;16.90;1.00;;;;;;5041020;28;20710;-81
2023/05/01 09:20:52;;;;;;;67.77;5.07;;;16.80;1.00;;;;;;5042623;28;20896;-81
2023/05/01 09:23:19;;;;;;;70.43;6.60;;;17.00;1.00;;;;;;5041946;28;20415;-81
2023/05/01 09:25:45;;;;;;;66.10;4.73;;;17.10;1.00;;;;;;5042429;28;20433;-81
2023/05/01 09:28:10;;;;;;;66.43;4.90;;;17.20;1.00;;;;;;5042065;28;20558;-81
2023/05/01 09:30:37;;;;;;;67.90;4.63;;;17.20;1.00;;;;;;5039849;28;20475;-81
2023/05/01 09:33:06;;;;;;;67.63;4.97;;;17.30;1.00;;;;;;5041141;28;20164;-80
2023/05/01 09:35:48;;;;;;;68.30;5.63;;;17.50;1.00;;;;;;5041299;28;20761;-82
2023/05/01 09:38:17;;;;;;;68.40;5.37;;;17.70;1.00;;;;;;5039951;28;20408;-81
2023/05/01 09:40:43;;;;;;;66.10;5.00;;;17.80;1.00;;;;;;5041047;28;20408;-81
2023/05/01 09:43:09;;;;;;;67.97;5.40;;;17.80;1.00;;;;;;5041207;28;20408;-81
2023/05/01 09:45:35;;;;;;;67.17;4.60;;;17.60;1.00;;;;;;5039206;28;20480;-80
2023/05/01 09:48:10;;;;;;;68.10;5.50;;;17.50;1.00;;;;;;5040794;28;20192;-81
2023/05/01 09:50:35;;;;;;;66.90;5.00;;;17.50;1.00;;;;;;5039522;28;20486;-81
2023/05/01 09:53:03;;;;;;;67.87;4.97;;;17.70;1.00;;;;;;5041229;28;20408;-81
2023/05/01 09:55:30;;;;;;;68.83;5.80;;;17.90;1.00;;;;;;5039269;28;20263;-81
2023/05/01 09:57:57;;;;;;;70.57;5.77;;;18.10;1.00;;;;;;5039904;28;20479;-81
2023/05/01 10:00:24;;;;;;;69.13;6.33;;;18.30;1.00;;;;;;5036863;28;20408;-80
2023/05/01 10:02:50;;;;;;;67.77;6.50;;;18.40;1.00;;;;;;5036450;28;20419;-80
2023/05/01 10:05:16;;;;;;;67.83;6.40;;;18.60;1.00;;;;;;5036314;28;20915;-80
2023/05/01 10:07:59;;;;;;;70.13;6.80;;;18.80;1.00;;;;;;5036307;28;20415;-80
2023/05/01 10:10:26;;;;;;;68.20;6.30;;;19.00;1.00;;;;;;5034539;28;20447;-80
2023/05/01 10:12:52;;;;;;;68.23;5.83;;;19.10;1.00;;;;;;5036168;28;20475;-80
2023/05/01 10:15:19;;;;;;;71.10;6.53;;;19.10;1.00;;;;;;5034729;28;20503;-80
2023/05/01 10:17:48;;;;;;;69.10;6.50;;;19.30;1.00;;;;;;5035801;28;20264;-80
2023/05/01 10:20:13;;;;;;;68.50;6.50;;;19.50;1.00;;;;;;5036230;28;20396;-80
2023/05/01 10:22:43;;;;;;;70.20;6.13;;;19.30;1.00;;;;;;5036128;28;20396;-80
2023/05/01 10:25:10;;;;;;;69.13;4.93;;;19.40;1.00;;;;;;5035987;28;20181;-80
2023/05/01 10:27:40;;;;;;;70.27;5.67;;;19.70;1.00;;;;;;5034658;28;20869;-80
2023/05/01 10:30:07;;;;;;;67.17;4.70;;;20.10;1.00;;;;;;5034525;28;20444;-80
2023/05/01 10:32:38;;;;;;;69.80;4.40;;;20.30;1.00;;;;;;5034616;28;20931;-80
2023/05/01 10:35:20;;;;;;;67.00;4.77;;;20.80;1.00;;;;;;5034471;28;20435;-80
2023/05/01 10:38:00;;;;;;;67.37;4.53;;;21.00;1.00;;;;;;5036221;28;20781;-80
2023/05/01 10:40:38;;;;;;;67.60;4.30;;;21.10;1.00;;;;;;5035802;28;20475;-80
2023/05/01 10:43:24;;;;;;;67.37;4.17;;;21.20;1.00;;;;;;5036033;28;20490;-81
2023/05/01 10:46:06;;;;;;;67.30;4.20;;;21.40;1.00;;;;;;5035682;28;20405;-81
2023/05/01 10:48:43;;;;;;;67.00;4.30;;;21.40;1.00;;;;;;5035534;28;20781;-81
2023/05/01 10:51:14;;;;;;;69.00;5.20;;;21.60;1.00;;;;;;5035626;28;20432;-81
2023/05/01 10:53:43;;;;;;;67.60;4.53;;;21.70;1.00;;;;;;5035562;28;20503;-81
2023/05/01 10:56:25;;;;;;;67.23;4.50;;;21.50;1.00;;;;;;5033987;28;20410;-81
2023/05/01 10:59:04;;;;;;;68.67;5.10;;;21.30;1.00;;;;;;5033907;28;20930;-81
2023/05/01 11:01:41;;;;;;;68.70;4.60;;;21.20;1.00;;;;;;5035364;28;20395;-81
2023/05/01 11:04:26;;;;;;;70.10;5.70;;;21.20;1.00;;;;;;5035526;28;20423;-81
2023/05/01 11:07:04;;;;;;;69.70;4.90;;;21.00;1.00;;;;;;5035392;28;20407;-81
2023/05/01 11:09:41;;;;;;;70.40;5.70;;;21.20;1.00;;;;;;5037365;28;20418;-81
2023/05/01 11:12:10;;;;;;;68.17;5.50;;;21.20;1.00;;;;;;5036351;28;20412;-81
2023/05/01 11:15:01;;;;;;;68.40;5.57;;;21.30;1.00;;;;;;5036785;28;20443;-81
2023/05/01 11:17:41;;;;;;;70.87;7.07;;;21.10;1.00;;;;;;5035169;28;20492;-81
2023/05/01 11:20:08;;;;;;;69.83;6.90;;;21.20;1.00;;;;;;5035293;28;20402;-81
2023/05/01 11:22:39;;;;;;;69.80;6.60;;;21.30;1.00;;;;;;5034963;28;20403;-81
2023/05/01 11:25:19;;;;;;;68.30;6.03;;;21.30;1.00;;;;;;5034955;28;20952;-81
2023/05/01 11:27:55;;;;;;;69.27;5.83;;;21.20;1.00;;;;;;5033754;28;20887;-81
2023/05/01 11:30:35;;;;;;;70.37;6.03;;;21.20;1.00;;;;;;5034593;28;20485;-81
2023/05/01 11:33:04;;;;;;;67.67;6.10;;;21.50;1.00;;;;;;5035317;28;20385;-81
2023/05/01 11:35:31;;;;;;;72.67;8.13;;;22.00;1.00;;;;;;5033621;28;20821;-81
2023/05/01 11:37:57;;;;;;;71.10;8.07;;;22.20;1.00;;;;;;5038001;28;20759;-81
2023/05/01 11:40:27;;;;;;;68.70;7.40;;;21.90;1.00;;;;;;5039954;28;20449;-81
2023/05/01 11:43:08;;;;;;;70.47;8.93;;;21.80;1.00;;;;;;5040453;28;20447;-81
2023/05/01 11:45:35;;;;;;;69.40;9.17;;;21.70;1.00;;;;;;5038698;28;20428;-82
2023/05/01 11:48:01;;;;;;;69.87;8.40;;;21.80;1.00;;;;;;5039640;28;20424;-82
2023/05/01 11:50:35;;;;;;;70.17;9.70;;;21.90;1.00;;;;;;5037915;28;20448;-82
2023/05/01 11:53:02;;;;;;;69.90;8.10;;;22.00;1.00;;;;;;5040412;28;20875;-82
2023/05/01 11:55:33;;;;;;;70.77;7.07;;;21.70;1.00;;;;;;5039441;28;20798;-82
2023/05/01 11:57:58;;;;;;;70.97;8.97;;;21.60;1.00;;;;;;5038398;28;20771;-81
2023/05/01 12:00:32;;;;;;;69.07;7.43;;;21.50;1.00;;;;;;5039857;28;20494;-82
2023/05/01 12:03:01;;;;;;;69.90;7.83;;;21.30;1.00;;;;;;5038855;28;20199;-82
2023/05/01 12:05:28;;;;;;;68.97;8.10;;;21.20;1.00;;;;;;5038399;28;20482;-82
2023/05/01 12:08:17;;;;;;;70.27;7.57;;;21.20;1.00;;;;;;5036774;28;20558;-81
2023/05/01 12:10:45;;;;;;;68.93;7.20;;;21.10;1.00;;;;;;5034013;28;20514;-81
2023/05/01 12:13:13;;;;;;;69.40;7.80;;;21.10;1.00;;;;;;5033800;28;20764;-81
2023/05/01 12:15:42;;;;;;;68.30;6.73;;;21.20;1.00;;;;;;5032607;28;20910;-81
2023/05/01 12:18:08;;;;;;;70.67;6.00;;;21.20;1.00;;;;;;5033657;28;20932;-81
2023/05/01 12:20:41;;;;;;;68.80;6.10;;;21.20;1.00;;;;;;5032651;28;20505;-81
2023/05/01 12:23:09;;;;;;;70.87;6.63;;;21.20;1.00;;;;;;5032512;28;20410;-81
2023/05/01 12:25:38;;;;;;;68.80;7.23;;;21.30;1.00;;;;;;5033369;28;20526;-81
2023/05/01 12:28:09;;;;;;;69.87;6.43;;;21.30;1.00;;;;;;5033690;28;20405;-81
2023/05/01 12:30:35;;;;;;;69.30;7.53;;;21.40;1.00;;;;;;5033856;28;20516;-81
2023/05/01 12:33:09;;;;;;;68.60;6.73;;;21.30;1.00;;;;;;5033487;28;20403;-81
2023/05/01 12:35:35;;;;;;;70.50;7.53;;;21.20;1.00;;;;;;5032354;28;20433;-81
2023/05/01 12:38:13;;;;;;;72.67;6.73;;;21.20;1.00;;;;;;5033651;28;20959;-81
2023/05/01 12:40:48;;;;;;;70.67;7.40;;;21.20;1.00;;;;;;5032373;28;20410;-81
2023/05/01 12:43:15;;;;;;;69.47;6.23;;;21.40;1.00;;;;;;5032840;28;20767;-81
2023/05/01 12:45:41;;;;;;;68.10;5.77;;;21.40;1.00;;;;;;5032213;28;20782;-81
2023/05/01 12:48:13;;;;;;;70.20;7.63;;;21.70;1.00;;;;;;5032174;28;20404;-80